HomeShort term forecast

Short term forecast

Graphical weather forecast for the next 48 hours for Montreal:
Short term forecast
This weather forecast is automatically refreshed every 3 hours.

Hourly Experimental Forecast for the next 48 hours

Overall summary: Rain until this afternoon, starting again this evening, and breezy starting this afternoon, continuing until tomorrow morning.

 Date & Hour   Temp   Feel   Baro   Hum   Speed & Bearing   Wind Gust   Precip.%   Precip.   Visibility   Cloud cover   Conditions 
 21/09/2018 - 09:00  16.5°C  16.7°C  1014.2 hPa  93%  18.2 km/h   42.0 km/h  93%  1.22 mm/h  8.0km  100%  Light Rain 
 21/09/2018 - 10:00  16.9°C  17.1°C  1012.8 hPa  94%  21.9 km/h   45.4 km/h  76%  1.79 mm/h  14.4km  100%  Rain 
 21/09/2018 - 11:00  17.9°C  18.1°C  1011.3 hPa  92%  24.6 km/h   48.6 km/h  74%  1.60 mm/h  15.9km  98%  Rain and Breezy 
 21/09/2018 - 12:00  18.8°C  19.2°C  1010.2 hPa  91%  21.6 km/h   39.2 km/h  62%  1.01 mm/h  15.2km  99%  Light Rain 
 21/09/2018 - 13:00  20.1°C  20.5°C  1008.9 hPa  88%  20.9 km/h   42.1 km/h  48%  0.69 mm/h  15.9km  83%  Light Rain 
 21/09/2018 - 14:00  21.4°C  21.9°C  1007.6 hPa  86%  22.3 km/h   44.9 km/h  37%  0.50 mm/h  16.1km  73%  Mostly Cloudy 
 21/09/2018 - 15:00  23.3°C  23.8°C  1006.1 hPa  78%  26.2 km/h   54.0 km/h  15%  0.24 mm/h  16.1km  60%  Breezy and Mostly Cloudy 
 21/09/2018 - 16:00  24.4°C  24.9°C  1004.4 hPa  73%  29.9 km/h   58.2 km/h  5%  0.03 mm/h  16.1km  44%  Breezy and Partly Cloudy 
 21/09/2018 - 17:00  24.9°C  25.3°C  1002.9 hPa  71%  32.2 km/h   60.5 km/h  0%  --  16.1km  36%  Breezy and Partly Cloudy 
 21/09/2018 - 18:00  24.5°C  24.9°C  1001.8 hPa  71%  33.5 km/h   63.4 km/h  7%  0.12 mm/h  16.1km  42%  Windy and Partly Cloudy 
 21/09/2018 - 19:00  23.4°C  23.7°C  1001.0 hPa  75%  34.5 km/h   64.4 km/h  33%  0.71 mm/h  16.1km  59%  Light Rain and Windy 
 21/09/2018 - 20:00  21.8°C  22.2°C  1000.9 hPa  83%  34.4 km/h   70.2 km/h  59%  2.52 mm/h  11.3km  64%  Rain and Windy 
 21/09/2018 - 21:00  21.5°C  21.9°C  1001.3 hPa  85%  34.6 km/h   69.8 km/h  34%  1.06 mm/h  15.3km  68%  Light Rain and Windy 
 21/09/2018 - 22:00  20.5°C  20.9°C  1002.2 hPa  88%  35.6 km/h   74.6 km/h  43%  0.91 mm/h  13.2km  85%  Light Rain and Windy 
 21/09/2018 - 23:00  20.4°C  20.8°C  1003.3 hPa  87%  34.7 km/h   71.5 km/h  34%  0.74 mm/h  12.0km  92%  Light Rain and Windy 
 22/09/2018 - 00:00  19.2°C  19.3°C  1004.7 hPa  85%  32.4 km/h   66.9 km/h  29%  0.39 mm/h  11.5km  76%  Windy and Mostly Cloudy 
 22/09/2018 - 01:00  18.0°C  18.0°C  1006.3 hPa  78%  32.9 km/h   61.3 km/h  18%  0.07 mm/h  11.4km  49%  Breezy and Partly Cloudy 
 22/09/2018 - 02:00  16.3°C  16.3°C  1008.1 hPa  72%  32.1 km/h   55.8 km/h  11%  0.02 mm/h  12.8km  30%  Breezy and Partly Cloudy 
 22/09/2018 - 03:00  14.7°C  14.7°C  1010.3 hPa  69%  29.3 km/h   50.6 km/h  6%  0.01 mm/h  16.1km  33%  Breezy and Partly Cloudy 
 22/09/2018 - 04:00  13.2°C  13.2°C  1012.6 hPa  68%  25.6 km/h   45.4 km/h  0%  --  16.1km  41%  Breezy and Partly Cloudy 
 22/09/2018 - 05:00  12.0°C  12.0°C  1014.9 hPa  66%  22.5 km/h   40.4 km/h  0%  --  16.1km  44%  Partly Cloudy 
 22/09/2018 - 06:00  10.8°C  10.8°C  1017.0 hPa  67%  19.8 km/h   35.7 km/h  0%  --  16.1km  40%  Partly Cloudy 
 22/09/2018 - 07:00  9.8°C  7.4°C  1019.0 hPa  69%  17.4 km/h   31.2 km/h  3%  0.01 mm/h  16.1km  32%  Partly Cloudy 
 22/09/2018 - 08:00  9.5°C  7.2°C  1020.6 hPa  68%  15.6 km/h   27.2 km/h  3%  0.01 mm/h  16.1km  24%  Clear 
 22/09/2018 - 09:00  10.0°C  8.0°C  1021.7 hPa  63%  14.6 km/h   23.8 km/h  2%  0.01 mm/h  16.1km  16%  Clear 
 22/09/2018 - 10:00  11.1°C  11.1°C  1022.4 hPa  57%  14.3 km/h   20.8 km/h  0%  --  16.1km  8%  Clear 
 22/09/2018 - 11:00  12.4°C  12.4°C  1022.9 hPa  51%  14.1 km/h   18.8 km/h  0%  --  16.1km  2%  Clear 
 22/09/2018 - 12:00  13.5°C  13.5°C  1023.0 hPa  48%  14.1 km/h   18.2 km/h  0%  --  16.1km  1%  Clear 
 22/09/2018 - 13:00  14.4°C  14.4°C  1022.9 hPa  46%  14.2 km/h   18.6 km/h  0%  --  16.1km  1%  Clear 
 22/09/2018 - 14:00  15.2°C  15.2°C  1022.7 hPa  44%  14.4 km/h   19.1 km/h  0%  --  16.1km  1%  Clear 
 22/09/2018 - 15:00  16.0°C  16.0°C  1022.3 hPa  42%  15.0 km/h   19.4 km/h  0%  --  16.1km  1%  Clear 
 22/09/2018 - 16:00  16.7°C  16.7°C  1022.0 hPa  41%  15.6 km/h   19.9 km/h  0%  --  16.1km  0%  Clear 
 22/09/2018 - 17:00  16.6°C  16.6°C  1021.8 hPa  41%  15.6 km/h   20.3 km/h  0%  --  16.1km  0%  Clear 
 22/09/2018 - 18:00  15.6°C  15.6°C  1022.0 hPa  45%  14.2 km/h   20.5 km/h  0%  --  16.1km  0%  Clear 
 22/09/2018 - 19:00  13.8°C  13.8°C  1022.4 hPa  51%  12.2 km/h   20.7 km/h  0%  --  16.1km  0%  Clear 
 22/09/2018 - 20:00  12.4°C  12.4°C  1022.8 hPa  56%  10.7 km/h   20.0 km/h  0%  --  16.1km  0%  Clear 
 22/09/2018 - 21:00  11.5°C  11.5°C  1023.0 hPa  61%  9.7 km/h   17.7 km/h  0%  --  16.1km  0%  Clear 
 22/09/2018 - 22:00  10.9°C  10.9°C  1023.1 hPa  64%  9.1 km/h   14.6 km/h  0%  --  16.1km  0%  Clear 
 22/09/2018 - 23:00  10.3°C  10.3°C  1023.2 hPa  66%  9.0 km/h   13.1 km/h  0%  --  16.1km  0%  Clear 
 23/09/2018 - 00:00  9.9°C  8.6°C  1023.1 hPa  67%  9.1 km/h   14.3 km/h  0%  --  16.1km  2%  Clear 
 23/09/2018 - 01:00  9.7°C  8.4°C  1023.0 hPa  66%  9.5 km/h   17.0 km/h  0%  --  16.1km  4%  Clear 
 23/09/2018 - 02:00  9.3°C  7.8°C  1022.9 hPa  66%  10.1 km/h   20.0 km/h  0%  --  16.1km  7%  Clear 
 23/09/2018 - 03:00  8.9°C  7.1°C  1022.8 hPa  69%  10.9 km/h   23.4 km/h  0%  --  16.1km  8%  Clear 
 23/09/2018 - 04:00  8.5°C  6.5°C  1022.6 hPa  72%  11.8 km/h   27.1 km/h  0%  --  16.1km  9%  Clear 
 23/09/2018 - 05:00  8.3°C  6.2°C  1022.7 hPa  74%  12.6 km/h   29.7 km/h  0%  --  16.1km  10%  Clear 
 23/09/2018 - 06:00  8.2°C  6.0°C  1023.0 hPa  75%  13.3 km/h   30.6 km/h  0%  --  16.1km  12%  Clear 
 23/09/2018 - 07:00  8.2°C  5.8°C  1023.5 hPa  76%  14.0 km/h   30.4 km/h  0%  --  16.1km  13%  Clear 
 23/09/2018 - 08:00  8.6°C  6.2°C  1024.1 hPa  75%  14.4 km/h   29.4 km/h  0%  --  16.1km  16%  Clear 
Test

 

Past weather and reports

Past weatherFind in this section the past weather conditions, weather archive, graphics, reports and statistics.

Current conditions

Current weather condition for MontrealAll you need to know about the current weather conditions for Montreal. Weather data is updated every 10 minutes.

Weather forecast

Current Montreal weatherSince 2004, celinium.com website has provided accurate weather forecast for Montreal's island.